createdAt,value
2018-09-04T00:00:01.715Z,1017.37
2018-09-04T00:15:00.580Z,1017.35
2018-09-04T00:20:01.540Z,1017.35
2018-09-04T00:30:00.649Z,1017.17
2018-09-04T00:35:00.513Z,1017.17
2018-09-04T00:45:00.631Z,1017.17
2018-09-04T00:55:00.649Z,1017.09
2018-09-04T01:00:00.661Z,1017.18
2018-09-04T01:15:00.630Z,1017.08
2018-09-04T01:30:00.670Z,1017.24
2018-09-04T01:45:00.666Z,1017.17
2018-09-04T02:00:00.653Z,1017.1
2018-09-04T02:10:00.651Z,1017.11
2018-09-04T02:15:00.721Z,1017.11
2018-09-04T02:20:00.685Z,1016.96
2018-09-04T02:30:01.638Z,1016.96
2018-09-04T02:35:00.811Z,1016.96
2018-09-04T02:45:00.738Z,1016.88
2018-09-04T02:55:00.660Z,1016.9
2018-09-04T03:00:00.653Z,1016.88
2018-09-04T03:10:00.658Z,1016.75
2018-09-04T03:15:00.599Z,1016.75
2018-09-04T03:20:02.641Z,1016.81
2018-09-04T03:25:00.629Z,1016.81
2018-09-04T03:30:00.677Z,1016.82
2018-09-04T03:35:00.796Z,1016.82
2018-09-04T03:40:00.612Z,1016.76
2018-09-04T03:45:00.760Z,1016.76
2018-09-04T04:00:00.829Z,1016.72
2018-09-04T04:05:00.789Z,1016.72
2018-09-04T04:10:00.823Z,1016.76
2018-09-04T04:15:00.784Z,1016.76
2018-09-04T04:20:00.764Z,1016.82
2018-09-04T04:25:00.814Z,1016.82
2018-09-04T04:30:00.769Z,1016.83
2018-09-04T04:35:00.815Z,1016.83
2018-09-04T04:40:01.025Z,1016.9
2018-09-04T04:45:00.780Z,1016.9
2018-09-04T04:50:00.900Z,1016.9
2018-09-04T04:55:00.806Z,1016.9
2018-09-04T05:00:00.849Z,1016.85
2018-09-04T05:05:00.783Z,1016.85
2018-09-04T05:15:00.793Z,1016.84
2018-09-04T05:20:00.792Z,1016.88
2018-09-04T05:30:00.860Z,1016.89
2018-09-04T05:35:00.765Z,1016.89
2018-09-04T05:40:00.797Z,1016.87
2018-09-04T05:45:00.766Z,1016.87
2018-09-04T05:50:00.810Z,1016.95
2018-09-04T05:55:01.013Z,1016.95
2018-09-04T06:00:00.866Z,1016.96
2018-09-04T06:05:00.806Z,1016.96
2018-09-04T06:10:00.834Z,1017.03
2018-09-04T06:15:00.800Z,1017.03
2018-09-04T06:20:01.079Z,1016.94
2018-09-04T06:30:00.809Z,1016.96
2018-09-04T06:35:00.807Z,1016.96
2018-09-04T06:40:00.853Z,1016.94
2018-09-04T06:45:00.745Z,1016.94
2018-09-04T06:50:00.872Z,1017.04
2018-09-04T07:00:01.845Z,1017.09
2018-09-04T07:05:00.911Z,1017.09
2018-09-04T07:10:00.744Z,1017.09
2018-09-04T07:15:00.943Z,1017.09
2018-09-04T07:20:00.993Z,1017.16
2018-09-04T07:30:00.950Z,1017.22
2018-09-04T07:35:00.748Z,1017.22
2018-09-04T07:45:00.900Z,1017.25
2018-09-04T07:50:03.828Z,1017.21
2018-09-04T07:55:00.768Z,1017.21
2018-09-04T08:00:00.969Z,1017.28
2018-09-04T08:05:00.660Z,1017.28
2018-09-04T08:10:00.832Z,1017.18
2018-09-04T08:15:00.923Z,1017.18
2018-09-04T08:20:00.738Z,1017.21
2018-09-04T08:25:00.706Z,1017.21
2018-09-04T08:30:01.008Z,1017.12
2018-09-04T08:35:00.768Z,1017.12
2018-09-04T08:45:00.933Z,1017.05
2018-09-04T09:00:02.912Z,1017.03
2018-09-04T09:05:00.724Z,1017.03
2018-09-04T09:10:00.985Z,1017.05
2018-09-04T09:15:00.887Z,1017.05
2018-09-04T09:20:01.741Z,1017.06
2018-09-04T09:25:00.753Z,1017.06
2018-09-04T09:30:00.961Z,1017.11
2018-09-04T09:40:00.773Z,1016.85
2018-09-04T09:45:00.939Z,1016.85
2018-09-04T09:50:00.731Z,1016.89
2018-09-04T09:55:00.793Z,1016.89
2018-09-04T10:00:01.139Z,1016.84
2018-09-04T10:10:00.900Z,1016.88
2018-09-04T10:15:00.949Z,1016.88
2018-09-04T10:20:01.160Z,1016.87
2018-09-04T10:30:00.877Z,1016.98
2018-09-04T10:40:00.809Z,1016.95
2018-09-04T10:45:00.960Z,1016.95
2018-09-04T10:50:02.810Z,1016.91
2018-09-04T11:00:00.965Z,1016.86
2018-09-04T11:05:00.740Z,1016.86
2018-09-04T11:10:01.333Z,1016.73
2018-09-04T11:15:00.896Z,1016.73
2018-09-04T11:20:00.824Z,1016.56
2018-09-04T11:25:03.192Z,1016.56
2018-09-04T11:30:02.019Z,1016.53
2018-09-04T11:35:00.760Z,1016.53
2018-09-04T11:40:02.823Z,1016.44
2018-09-04T11:45:00.908Z,1016.44
2018-09-04T12:00:00.924Z,1016.72
2018-09-04T12:05:00.773Z,1016.72
2018-09-04T12:15:02.942Z,1016.7
2018-09-04T12:30:01.158Z,1016.76
2018-09-04T12:40:00.797Z,1016.62
2018-09-04T12:45:00.927Z,1016.62
2018-09-04T12:50:00.864Z,1016.57
2018-09-04T12:55:00.824Z,1016.57
2018-09-04T13:00:02.999Z,1016.55
2018-09-04T13:15:01.034Z,1016.58
2018-09-04T13:20:01.814Z,1016.61
2018-09-04T13:30:00.980Z,1016.56
2018-09-04T13:40:00.890Z,1016.59
2018-09-04T13:45:00.976Z,1016.59
2018-09-04T13:50:00.956Z,1016.56
2018-09-04T14:00:01.042Z,1016.61
2018-09-04T14:15:03.069Z,1016.71
2018-09-04T14:25:00.977Z,1016.78
2018-09-04T14:30:16.671Z,1016.61
2018-09-04T14:45:01.249Z,1016.58
2018-09-04T14:50:00.897Z,1016.65
2018-09-04T15:00:01.029Z,1016.78
2018-09-04T15:05:00.823Z,1016.78
2018-09-04T15:10:00.943Z,1016.68
2018-09-04T15:15:01.005Z,1016.68
2018-09-04T15:30:00.999Z,1016.73
2018-09-04T15:35:00.898Z,1016.73
2018-09-04T15:45:01.043Z,1016.82
2018-09-04T16:00:00.983Z,1016.81
2018-09-04T16:05:00.953Z,1016.81
2018-09-04T16:10:01.790Z,1016.85
2018-09-04T16:15:00.982Z,1016.85
2018-09-04T16:20:01.048Z,1016.86
2018-09-04T16:25:00.980Z,1016.86
2018-09-04T16:30:01.124Z,1016.86
2018-09-04T16:35:01.298Z,1016.86
2018-09-04T16:40:00.998Z,1016.87
2018-09-04T16:45:01.056Z,1016.87
2018-09-04T17:00:00.962Z,1016.86
2018-09-04T17:10:01.008Z,1016.87
2018-09-04T17:15:01.016Z,1016.87
2018-09-04T17:20:01.071Z,1016.9
2018-09-04T17:25:03.338Z,1016.9
2018-09-04T17:30:01.090Z,1016.87
2018-09-04T17:35:00.968Z,1016.87
2018-09-04T17:40:01.003Z,1016.82
2018-09-04T17:45:01.008Z,1016.82
2018-09-04T17:50:01.078Z,1016.87
2018-09-04T17:55:01.200Z,1016.87
2018-09-04T18:00:01.016Z,1016.93
2018-09-04T18:05:01.007Z,1016.93
2018-09-04T18:10:01.016Z,1017.07
2018-09-04T18:15:01.016Z,1017.07
2018-09-04T18:20:01.017Z,1017.21
2018-09-04T18:25:01.101Z,1017.21
2018-09-04T18:30:00.996Z,1017.27
2018-09-04T18:35:01.030Z,1017.27
2018-09-04T18:40:01.162Z,1017.4
2018-09-04T18:45:00.997Z,1017.4
2018-09-04T18:50:01.022Z,1017.51
2018-09-04T18:55:01.036Z,1017.51
2018-09-04T19:00:01.034Z,1017.67
2018-09-04T19:05:01.015Z,1017.67
2018-09-04T19:10:01.030Z,1017.6
2018-09-04T19:15:01.036Z,1017.6
2018-09-04T19:20:00.893Z,1017.65
2018-09-04T19:25:00.890Z,1017.65
2018-09-04T19:30:00.962Z,1017.75
2018-09-04T19:45:01.954Z,1017.64
2018-09-04T20:00:01.002Z,1017.88
2018-09-04T20:05:00.976Z,1017.88
2018-09-04T20:10:01.044Z,1017.93
2018-09-04T20:15:00.951Z,1017.93
2018-09-04T20:20:00.999Z,1017.94
2018-09-04T20:25:00.955Z,1017.94
2018-09-04T20:30:00.981Z,1018.04
2018-09-04T20:40:00.996Z,1017.99
2018-09-04T20:45:00.979Z,1017.99
2018-09-04T20:50:00.905Z,1018.02
2018-09-04T21:00:01.161Z,1018.09
2018-09-04T21:05:00.939Z,1018.09
2018-09-04T21:15:01.944Z,1018.05
2018-09-04T21:20:00.992Z,1018.08
2018-09-04T21:30:01.012Z,1018.15
2018-09-04T21:40:00.984Z,1018.21
2018-09-04T21:45:00.926Z,1018.21
2018-09-04T21:50:00.930Z,1018.24
2018-09-04T22:00:01.030Z,1018.24
2018-09-04T22:15:00.981Z,1018.24
2018-09-04T22:30:01.094Z,1018.14
2018-09-04T22:45:00.929Z,1018.2
2018-09-04T22:50:01.062Z,1018.37
2018-09-04T23:00:01.003Z,1018.32
2018-09-04T23:05:00.933Z,1018.32
2018-09-04T23:15:00.965Z,1018.47
2018-09-04T23:25:03.236Z,1018.49
2018-09-04T23:30:01.043Z,1018.49
2018-09-04T23:35:01.002Z,1018.49
2018-09-04T23:45:01.008Z,1018.41
